Flugplatz Speyer

Für EDRY sind keine METAR/TAF Berichte vorhanden.
Es werden die Flugwettermeldungen vom Flugplatz Mannheim-City in 19 km Entfernung angezeigt.

Bericht für EDFM

vom 23.08. um 12:50 UTC

Wind 5 kt aus 60°

Sichtweite 10 km oder mehr

gute Sicht, keine Wolken < 5000 ft, keine CB, keine Wettererscheinungen (CAVOK)

Temperatur 28.0°C

Taupunkt 10.0°C

Luftfeuchtigkeit 32%

Luftdruck 1023 hPa

EDFM 231250Z 06005KT 360V140 CAVOK 28/10 Q1023

Prognose für EDFM

vom 23.08. um 00:00 UTC

Zwischen 00:00 UTC und 00:00 UTC

Wind 5 kt aus 60°

Sichtweite 10 km oder mehr

keine signifikanten Wettererscheinungen

keine Wolken

TAF EDFM 231100Z 2312/2321 06005KT CAVOK
Impressum